Time;durP1;ratioP1;P1;durP2;ratioP2;P2;SDS_P1;SDS_P2;PMS_P1;PMS_P2;Temp;Humidity;BMP_temperature;BMP_pressure;BME280_temperature;BME280_humidity;BME280_pressure;Samples;Min_cycle;Max_cycle;Signal;HPM_P1;HPM_P2
2021/12/01 00:01:11;;;;;;;4.30;1.05;;;;;;;;;;5029998;28;20119;-75
2021/12/01 00:03:42;;;;;;;2.40;0.88;;;;;;;;;;5030334;28;20492;-70
2021/12/01 00:06:11;;;;;;;2.23;1.40;;;;;;;;;;5013070;28;20099;-75
2021/12/01 00:08:40;;;;;;;3.42;1.17;;;;;;;;;;5030378;28;20099;-70
2021/12/01 00:11:08;;;;;;;1.58;1.00;;;;;;;;;;5029803;28;20124;-75
2021/12/01 00:13:46;;;;;;;2.25;1.13;;;;;;;;;;5030004;28;20041;-71
2021/12/01 00:16:14;;;;;;;2.88;1.10;;;;;;;;;;5012836;28;20510;-75
2021/12/01 00:18:43;;;;;;;2.75;1.10;;;;;;;;;;5029567;28;20484;-75
2021/12/01 00:21:12;;;;;;;1.88;0.80;;;;;;;;;;5031831;28;20083;-70
2021/12/01 00:23:40;;;;;;;3.38;1.40;;;;;;;;;;5013832;28;20458;-74
2021/12/01 00:26:08;;;;;;;4.22;1.52;;;;;;;;;;5030760;28;20048;-70
2021/12/01 00:28:41;;;;;;;2.05;0.63;;;;;;;;;;5031310;28;20151;-75
2021/12/01 00:31:09;;;;;;;4.57;1.10;;;;;;;;;;5030703;28;20053;-71
2021/12/01 00:33:37;;;;;;;2.63;1.05;;;;;;;;;;5013552;28;20088;-71
2021/12/01 00:36:07;;;;;;;1.80;1.10;;;;;;;;;;5013380;28;20061;-75
2021/12/01 00:38:36;;;;;;;4.25;1.30;;;;;;;;;;5014743;28;20037;-70
2021/12/01 00:41:07;;;;;;;2.42;1.10;;;;;;;;;;5031982;28;20038;-74
2021/12/01 00:43:38;;;;;;;3.28;1.10;;;;;;;;;;5032903;28;20107;-75
2021/12/01 00:46:19;;;;;;;1.13;0.98;;;;;;;;;;5015018;28;20055;-74
2021/12/01 00:48:47;;;;;;;1.63;0.88;;;;;;;;;;5015021;28;20076;-71
2021/12/01 00:51:16;;;;;;;1.38;0.98;;;;;;;;;;5015347;28;20045;-70
2021/12/01 00:53:45;;;;;;;2.10;0.98;;;;;;;;;;5033892;28;20045;-70
2021/12/01 00:56:12;;;;;;;1.73;0.85;;;;;;;;;;5036164;28;20056;-70
2021/12/01 00:58:41;;;;;;;2.88;1.38;;;;;;;;;;5019377;28;20049;-70
2021/12/01 01:01:09;;;;;;;2.35;1.20;;;;;;;;;;5018079;28;20493;-70
2021/12/01 01:03:37;;;;;;;1.30;0.82;;;;;;;;;;5036159;28;20049;-76
2021/12/01 01:06:05;;;;;;;1.20;1.10;;;;;;;;;;5018785;28;20405;-75
2021/12/01 01:08:36;;;;;;;2.20;1.20;;;;;;;;;;5036321;28;20064;-71
2021/12/01 01:16:25;;;;;;;2.17;1.35;;;;;;;;;;5036376;28;20045;-71
2021/12/01 01:18:58;;;;;;;1.67;1.05;;;;;;;;;;5036140;28;20038;-76
2021/12/01 01:21:28;;;;;;;3.75;1.20;;;;;;;;;;5036208;28;20092;-75
2021/12/01 01:23:57;;;;;;;4.28;1.27;;;;;;;;;;5035922;28;20075;-71
2021/12/01 01:26:26;;;;;;;2.95;1.17;;;;;;;;;;5035562;28;20062;-70
2021/12/01 01:28:57;;;;;;;1.35;0.90;;;;;;;;;;5036011;28;20069;-75
2021/12/01 01:31:26;;;;;;;2.50;1.30;;;;;;;;;;5036094;28;20042;-75
2021/12/01 01:33:53;;;;;;;1.58;1.17;;;;;;;;;;5035949;28;20046;-75
2021/12/01 01:36:21;;;;;;;3.08;1.23;;;;;;;;;;5036172;28;20055;-70
2021/12/01 01:38:50;;;;;;;2.05;1.13;;;;;;;;;;5035652;28;20493;-75
2021/12/01 01:41:20;;;;;;;2.97;1.42;;;;;;;;;;5017893;28;20132;-75
2021/12/01 01:43:50;;;;;;;2.17;1.20;;;;;;;;;;5035847;28;20506;-75
2021/12/01 01:46:20;;;;;;;2.47;1.17;;;;;;;;;;5017988;28;20041;-75
2021/12/01 01:48:54;;;;;;;1.30;0.95;;;;;;;;;;5035605;28;20033;-71
2021/12/01 01:51:24;;;;;;;2.58;1.00;;;;;;;;;;5035291;28;20075;-74
2021/12/01 01:53:54;;;;;;;2.55;1.33;;;;;;;;;;5034805;28;20365;-71
2021/12/01 01:56:26;;;;;;;3.70;1.27;;;;;;;;;;5035413;28;20048;-71
2021/12/01 01:58:56;;;;;;;2.70;1.33;;;;;;;;;;5035117;28;20431;-75
2021/12/01 02:04:00;;;;;;;3.78;1.02;;;;;;;;;;5034702;28;20137;-75
2021/12/01 02:06:31;;;;;;;2.35;1.08;;;;;;;;;;5035018;28;20052;-74
2021/12/01 02:08:58;;;;;;;2.00;1.17;;;;;;;;;;5034879;28;20045;-74
2021/12/01 02:11:27;;;;;;;2.05;1.15;;;;;;;;;;5001227;28;20045;-75
2021/12/01 02:13:56;;;;;;;1.95;1.00;;;;;;;;;;5034621;28;20132;-71
2021/12/01 02:16:24;;;;;;;2.13;0.70;;;;;;;;;;5035093;28;20059;-75
2021/12/01 02:18:53;;;;;;;1.75;0.75;;;;;;;;;;4994511;28;20049;-75
2021/12/01 02:21:29;;;;;;;1.52;1.05;;;;;;;;;;5016152;28;20488;-75
2021/12/01 02:23:59;;;;;;;1.15;1.05;;;;;;;;;;5014734;28;20453;-76
2021/12/01 02:26:28;;;;;;;1.80;0.90;;;;;;;;;;5014810;28;20405;-75
2021/12/01 02:28:57;;;;;;;1.88;1.00;;;;;;;;;;5015357;28;20053;-75
2021/12/01 02:31:34;;;;;;;1.45;1.10;;;;;;;;;;4982685;28;20117;-71
2021/12/01 02:34:06;;;;;;;1.73;0.82;;;;;;;;;;5014948;28;20108;-76
2021/12/01 02:36:34;;;;;;;1.17;0.90;;;;;;;;;;5014485;28;20045;-76
2021/12/01 02:39:05;;;;;;;1.55;0.98;;;;;;;;;;5014810;28;20046;-75
2021/12/01 02:41:35;;;;;;;4.45;1.00;;;;;;;;;;5015086;28;20136;-75
2021/12/01 02:44:06;;;;;;;1.83;0.95;;;;;;;;;;5014770;28;20045;-71
2021/12/01 02:46:43;;;;;;;2.22;1.05;;;;;;;;;;4998841;28;20038;-76
2021/12/01 02:49:12;;;;;;;2.88;1.13;;;;;;;;;;5014529;28;20146;-76
2021/12/01 02:51:40;;;;;;;3.53;1.00;;;;;;;;;;5014148;28;20050;-71
2021/12/01 02:54:08;;;;;;;1.38;0.93;;;;;;;;;;5015186;28;20046;-75
2021/12/01 02:56:36;;;;;;;1.58;0.90;;;;;;;;;;4997258;28;20061;-76
2021/12/01 02:59:11;;;;;;;2.35;0.90;;;;;;;;;;4998283;28;20508;-75
2021/12/01 03:01:40;;;;;;;1.95;1.05;;;;;;;;;;5014376;28;20034;-75
2021/12/01 03:04:09;;;;;;;3.88;1.05;;;;;;;;;;5014880;28;20104;-71
2021/12/01 03:06:37;;;;;;;5.90;1.08;;;;;;;;;;4996881;28;20042;-71
2021/12/01 03:09:06;;;;;;;3.65;0.93;;;;;;;;;;5014698;28;20587;-70
2021/12/01 03:11:35;;;;;;;1.52;0.80;;;;;;;;;;4996653;28;20045;-70
2021/12/01 03:14:11;;;;;;;0.55;0.55;;;;;;;;;;5014515;28;20528;-71
2021/12/01 03:16:39;;;;;;;2.20;0.90;;;;;;;;;;5028332;28;20042;-75
2021/12/01 03:19:15;;;;;;;2.10;0.90;;;;;;;;;;5034005;28;20075;-71
2021/12/01 03:21:44;;;;;;;1.50;0.90;;;;;;;;;;5033551;28;20041;-75
2021/12/01 03:24:11;;;;;;;2.35;0.90;;;;;;;;;;5034219;28;20091;-70
2021/12/01 03:26:41;;;;;;;1.80;1.23;;;;;;;;;;5033604;28;20046;-70
2021/12/01 03:29:14;;;;;;;3.40;1.10;;;;;;;;;;5034295;28;20053;-76
2021/12/01 03:31:43;;;;;;;2.65;1.33;;;;;;;;;;5033786;28;20049;-75
2021/12/01 03:34:11;;;;;;;3.35;1.25;;;;;;;;;;5033935;28;20440;-71
2021/12/01 03:36:40;;;;;;;4.88;1.30;;;;;;;;;;5015593;28;20075;-76
2021/12/01 03:39:08;;;;;;;2.92;2.17;;;;;;;;;;5016283;28;20050;-70
2021/12/01 03:41:35;;;;;;;4.05;2.55;;;;;;;;;;5033605;28;20085;-76
2021/12/01 03:44:03;;;;;;;3.35;2.03;;;;;;;;;;5016430;28;20048;-70
2021/12/01 03:46:32;;;;;;;5.93;2.30;;;;;;;;;;5033582;28;20064;-70
2021/12/01 03:49:00;;;;;;;5.65;3.10;;;;;;;;;;5032775;28;20071;-75
2021/12/01 03:51:28;;;;;;;5.10;2.70;;;;;;;;;;5033456;28;20041;-75
2021/12/01 03:53:59;;;;;;;6.13;2.30;;;;;;;;;;5015922;28;20140;-71
2021/12/01 03:56:26;;;;;;;2.85;2.05;;;;;;;;;;5032609;28;20064;-71
2021/12/01 03:59:02;;;;;;;2.05;1.23;;;;;;;;;;5033084;28;20041;-70
2021/12/01 04:01:31;;;;;;;3.13;1.10;;;;;;;;;;5015476;28;20071;-75
2021/12/01 04:03:59;;;;;;;2.60;0.77;;;;;;;;;;5015806;28;20037;-70
2021/12/01 04:06:34;;;;;;;3.42;1.02;;;;;;;;;;5033106;28;20048;-71
2021/12/01 04:09:01;;;;;;;1.67;1.20;;;;;;;;;;5033370;28;20041;-70
2021/12/01 04:11:32;;;;;;;1.63;1.10;;;;;;;;;;5033097;28;20033;-75
2021/12/01 04:14:01;;;;;;;4.45;1.55;;;;;;;;;;5015511;28;20115;-70
2021/12/01 04:16:28;;;;;;;3.13;2.05;;;;;;;;;;5033110;28;20052;-70
2021/12/01 04:18:56;;;;;;;2.25;1.50;;;;;;;;;;5032706;28;20056;-75
2021/12/01 04:21:26;;;;;;;2.13;1.65;;;;;;;;;;5032963;28;20103;-70
2021/12/01 04:23:54;;;;;;;3.75;2.60;;;;;;;;;;5015116;28;20048;-71
2021/12/01 04:26:28;;;;;;;2.78;1.90;;;;;;;;;;5032764;28;20116;-75
2021/12/01 04:28:56;;;;;;;3.65;1.85;;;;;;;;;;5016366;28;20052;-71
2021/12/01 04:31:24;;;;;;;3.08;1.33;;;;;;;;;;5033318;28;20072;-70
2021/12/01 04:33:54;;;;;;;4.78;1.25;;;;;;;;;;5032309;28;20099;-71
2021/12/01 04:36:24;;;;;;;1.58;1.20;;;;;;;;;;5032935;28;20049;-71
2021/12/01 04:38:52;;;;;;;2.63;1.25;;;;;;;;;;5032785;28;20069;-71
2021/12/01 04:41:23;;;;;;;4.43;2.40;;;;;;;;;;5032645;28;20045;-76
2021/12/01 04:43:53;;;;;;;3.20;1.98;;;;;;;;;;5015515;28;20045;-75
2021/12/01 04:46:22;;;;;;;3.53;2.50;;;;;;;;;;5032707;28;20044;-76
2021/12/01 04:48:51;;;;;;;4.20;2.10;;;;;;;;;;5032009;28;20079;-74
2021/12/01 04:51:19;;;;;;;3.30;1.40;;;;;;;;;;5015263;28;20492;-75
2021/12/01 04:53:51;;;;;;;2.60;1.38;;;;;;;;;;4998788;28;20046;-74
2021/12/01 04:56:19;;;;;;;4.57;1.05;;;;;;;;;;5032676;28;20046;-70
2021/12/01 04:58:50;;;;;;;2.38;1.08;;;;;;;;;;5014779;28;20053;-75
2021/12/01 05:01:18;;;;;;;1.08;0.95;;;;;;;;;;5032098;28;20046;-75
2021/12/01 05:03:47;;;;;;;2.38;1.20;;;;;;;;;;5034377;28;20045;-75
2021/12/01 05:06:16;;;;;;;1.38;1.15;;;;;;;;;;5032811;28;20065;-71
2021/12/01 05:08:43;;;;;;;2.13;1.15;;;;;;;;;;4998738;28;20456;-76
2021/12/01 05:11:25;;;;;;;2.50;1.35;;;;;;;;;;5032647;28;20049;-75
2021/12/01 05:14:09;;;;;;;1.52;1.23;;;;;;;;;;5032518;28;20138;-70
2021/12/01 05:16:39;;;;;;;2.42;1.50;;;;;;;;;;5032183;28;20045;-70
2021/12/01 05:19:08;;;;;;;1.85;1.30;;;;;;;;;;5031982;28;20041;-71
2021/12/01 05:21:36;;;;;;;1.27;1.02;;;;;;;;;;5032584;28;20075;-74
2021/12/01 05:24:08;;;;;;;3.85;1.33;;;;;;;;;;5032412;28;20033;-75
2021/12/01 05:26:38;;;;;;;5.00;1.67;;;;;;;;;;5014231;28;20051;-75
2021/12/01 05:29:06;;;;;;;2.58;1.30;;;;;;;;;;5032542;28;20045;-71
2021/12/01 05:31:33;;;;;;;1.38;1.15;;;;;;;;;;5013848;28;20080;-75
2021/12/01 05:34:02;;;;;;;3.15;1.27;;;;;;;;;;5032341;28;20064;-71
2021/12/01 05:36:30;;;;;;;5.07;2.03;;;;;;;;;;5032212;28;20041;-75
2021/12/01 05:38:58;;;;;;;7.90;2.38;;;;;;;;;;5031706;28;20120;-74
2021/12/01 05:41:25;;;;;;;3.92;2.80;;;;;;;;;;5035464;28;20124;-70
2021/12/01 05:43:55;;;;;;;5.95;3.53;;;;;;;;;;5035870;28;20488;-71
2021/12/01 05:46:26;;;;;;;6.78;4.03;;;;;;;;;;5035097;28;20066;-75
2021/12/01 05:48:55;;;;;;;13.48;5.50;;;;;;;;;;5035755;28;20041;-71
2021/12/01 05:51:22;;;;;;;8.88;4.85;;;;;;;;;;5036316;28;20368;-70
2021/12/01 05:53:50;;;;;;;7.68;5.38;;;;;;;;;;5035856;28;20042;-75
2021/12/01 05:56:19;;;;;;;7.05;3.80;;;;;;;;;;5017722;28;20440;-70
2021/12/01 05:58:48;;;;;;;8.23;3.92;;;;;;;;;;5035359;28;20042;-75
2021/12/01 06:01:16;;;;;;;3.85;2.90;;;;;;;;;;5034613;28;20045;-75
2021/12/01 06:03:43;;;;;;;6.93;2.22;;;;;;;;;;5035501;28;20037;-70
2021/12/01 06:06:11;;;;;;;3.35;1.80;;;;;;;;;;5035512;28;20037;-69
2021/12/01 06:08:39;;;;;;;3.95;1.90;;;;;;;;;;5035048;28;20068;-71
2021/12/01 06:11:08;;;;;;;5.35;2.33;;;;;;;;;;5035534;28;20132;-75
2021/12/01 06:13:37;;;;;;;4.38;2.10;;;;;;;;;;5034970;28;20081;-71
2021/12/01 06:16:06;;;;;;;3.55;2.20;;;;;;;;;;5017081;28;20057;-70
2021/12/01 06:18:33;;;;;;;4.20;2.10;;;;;;;;;;5034462;28;20053;-68
2021/12/01 06:21:03;;;;;;;5.18;1.70;;;;;;;;;;5034956;28;20053;-73
2021/12/01 06:23:30;;;;;;;2.65;1.70;;;;;;;;;;5035296;28;20114;-68
2021/12/01 06:25:58;;;;;;;6.00;2.08;;;;;;;;;;5034956;28;20041;-73
2021/12/01 06:28:25;;;;;;;4.40;1.70;;;;;;;;;;5034675;28;20133;-68
2021/12/01 06:30:53;;;;;;;3.97;1.70;;;;;;;;;;5034782;28;20046;-68
2021/12/01 06:33:26;;;;;;;4.93;1.88;;;;;;;;;;5016892;28;20029;-74
2021/12/01 06:35:54;;;;;;;4.05;2.03;;;;;;;;;;5033381;28;20038;-68
2021/12/01 06:38:22;;;;;;;4.80;1.92;;;;;;;;;;5033452;28;20496;-74
2021/12/01 06:40:50;;;;;;;5.47;1.70;;;;;;;;;;5033927;28;20144;-72
2021/12/01 06:43:17;;;;;;;2.42;1.80;;;;;;;;;;5033908;28;20038;-68
2021/12/01 06:45:46;;;;;;;4.43;1.70;;;;;;;;;;5017033;28;20408;-73
2021/12/01 06:48:14;;;;;;;4.00;1.75;;;;;;;;;;5034186;28;20040;-68
2021/12/01 06:50:42;;;;;;;2.80;1.63;;;;;;;;;;5015305;28;20125;-69
2021/12/01 06:53:10;;;;;;;2.33;1.80;;;;;;;;;;5034501;28;20051;-68
2021/12/01 06:55:38;;;;;;;4.00;2.13;;;;;;;;;;5034117;28;20133;-69
2021/12/01 06:58:06;;;;;;;6.10;2.15;;;;;;;;;;5033617;28;20072;-68
2021/12/01 07:00:35;;;;;;;3.35;2.17;;;;;;;;;;5034310;28;20041;-68
2021/12/01 07:03:02;;;;;;;4.35;2.13;;;;;;;;;;5034103;28;20042;-69
2021/12/01 07:05:33;;;;;;;4.72;2.50;;;;;;;;;;5033881;28;20033;-73
2021/12/01 07:08:00;;;;;;;8.07;3.25;;;;;;;;;;5034405;28;20045;-69
2021/12/01 07:10:29;;;;;;;8.15;2.85;;;;;;;;;;5034160;28;20378;-69
2021/12/01 07:12:56;;;;;;;5.03;3.15;;;;;;;;;;5033519;28;20064;-69
2021/12/01 07:15:24;;;;;;;5.85;3.15;;;;;;;;;;5033719;28;20586;-68
2021/12/01 07:17:53;;;;;;;6.07;2.70;;;;;;;;;;5033656;28;20045;-74
2021/12/01 07:20:21;;;;;;;4.07;2.28;;;;;;;;;;5016380;28;20140;-73
2021/12/01 07:22:49;;;;;;;5.75;3.03;;;;;;;;;;5033284;28;20092;-73
2021/12/01 07:25:16;;;;;;;4.90;2.75;;;;;;;;;;5033449;28;20052;-74
2021/12/01 07:27:45;;;;;;;3.58;1.83;;;;;;;;;;5033362;28;20575;-70
2021/12/01 07:30:12;;;;;;;5.25;2.45;;;;;;;;;;5016234;28;20041;-71
2021/12/01 07:32:40;;;;;;;5.10;2.85;;;;;;;;;;5033266;28;20049;-70
2021/12/01 07:35:08;;;;;;;5.20;1.42;;;;;;;;;;5033714;28;20161;-69
2021/12/01 07:37:35;;;;;;;4.82;1.48;;;;;;;;;;5033375;28;20056;-73
2021/12/01 07:40:03;;;;;;;5.63;1.88;;;;;;;;;;5033410;28;20064;-70
2021/12/01 07:42:31;;;;;;;4.18;1.70;;;;;;;;;;5032981;28;20042;-71
2021/12/01 07:45:03;;;;;;;3.58;2.20;;;;;;;;;;5016780;28;20041;-73
2021/12/01 07:47:31;;;;;;;6.25;1.95;;;;;;;;;;5015564;28;20580;-71
2021/12/01 07:50:00;;;;;;;5.57;2.28;;;;;;;;;;5033591;28;20049;-70
2021/12/01 07:52:29;;;;;;;4.25;2.30;;;;;;;;;;5033549;28;20056;-74
2021/12/01 07:54:58;;;;;;;4.85;2.67;;;;;;;;;;5033465;28;20492;-73
2021/12/01 07:57:26;;;;;;;6.95;2.80;;;;;;;;;;5032797;28;20048;-70
2021/12/01 07:59:57;;;;;;;9.38;3.63;;;;;;;;;;5015544;28;20053;-74
2021/12/01 08:02:26;;;;;;;7.82;3.60;;;;;;;;;;5015459;28;20485;-70
2021/12/01 08:04:55;;;;;;;8.25;3.38;;;;;;;;;;5033332;28;20037;-69
2021/12/01 08:07:24;;;;;;;6.35;3.40;;;;;;;;;;5033342;28;20080;-74
2021/12/01 08:09:51;;;;;;;5.85;3.38;;;;;;;;;;5044674;23;20516;-78
2021/12/01 08:12:19;;;;;;;8.93;4.97;;;;;;;;;;5033234;28;20045;-75
2021/12/01 08:14:47;;;;;;;11.45;6.15;;;;;;;;;;5032469;28;20048;-75
2021/12/01 08:17:14;;;;;;;12.50;6.25;;;;;;;;;;5032753;28;20468;-73
2021/12/01 08:19:42;;;;;;;10.15;6.07;;;;;;;;;;5032901;28;20041;-73
2021/12/01 08:22:09;;;;;;;9.95;5.20;;;;;;;;;;5014607;28;20041;-74
2021/12/01 08:24:37;;;;;;;8.90;5.32;;;;;;;;;;5014689;28;20516;-77
2021/12/01 08:27:05;;;;;;;9.13;5.60;;;;;;;;;;5032704;28;20042;-75
2021/12/01 08:29:33;;;;;;;10.85;4.97;;;;;;;;;;5032824;28;20041;-73
2021/12/01 08:32:00;;;;;;;8.45;4.38;;;;;;;;;;5015796;28;20488;-74
2021/12/01 08:34:29;;;;;;;6.20;3.78;;;;;;;;;;5032518;28;20048;-76
2021/12/01 08:36:56;;;;;;;7.57;3.80;;;;;;;;;;5015115;28;20647;-74
2021/12/01 08:39:24;;;;;;;8.05;3.88;;;;;;;;;;5032200;28;20037;-77
2021/12/01 08:41:51;;;;;;;6.53;3.45;;;;;;;;;;5032768;28;20508;-73
2021/12/01 08:44:19;;;;;;;11.63;3.40;;;;;;;;;;5014728;28;20069;-75
2021/12/01 08:46:46;;;;;;;10.50;3.97;;;;;;;;;;5032856;28;20416;-77
2021/12/01 08:49:14;;;;;;;9.95;3.33;;;;;;;;;;5032591;28;20104;-75
2021/12/01 08:51:42;;;;;;;7.90;2.88;;;;;;;;;;4998310;28;20505;-76
2021/12/01 08:54:13;;;;;;;8.48;3.05;;;;;;;;;;5014430;28;20416;-73
2021/12/01 08:56:41;;;;;;;6.30;2.72;;;;;;;;;;5032342;28;20132;-75
2021/12/01 08:59:09;;;;;;;4.50;3.08;;;;;;;;;;5032441;28;20051;-77
2021/12/01 09:01:36;;;;;;;5.07;2.58;;;;;;;;;;5031853;28;20488;-75
2021/12/01 09:04:03;;;;;;;9.00;2.88;;;;;;;;;;5032859;28;20044;-75
2021/12/01 09:06:31;;;;;;;8.65;2.88;;;;;;;;;;5032666;28;20042;-74
2021/12/01 09:08:58;;;;;;;6.65;2.75;;;;;;;;;;5014294;28;20046;-75
2021/12/01 09:11:26;;;;;;;4.85;2.25;;;;;;;;;;5032758;28;20037;-75
2021/12/01 09:13:54;;;;;;;7.68;2.42;;;;;;;;;;5031963;28;20052;-77
2021/12/01 09:16:22;;;;;;;5.63;2.00;;;;;;;;;;5018341;28;20382;-74
2021/12/01 09:18:50;;;;;;;5.85;1.60;;;;;;;;;;5018619;28;20618;-73
2021/12/01 09:21:20;;;;;;;5.57;2.00;;;;;;;;;;5018367;28;20049;-75
2021/12/01 09:23:49;;;;;;;5.90;2.03;;;;;;;;;;5018355;28;20049;-74
2021/12/01 09:26:16;;;;;;;10.23;1.77;;;;;;;;;;5035973;28;20103;-75
2021/12/01 09:28:44;;;;;;;5.63;1.73;;;;;;;;;;5036282;28;20124;-73
2021/12/01 09:31:11;;;;;;;8.25;2.15;;;;;;;;;;5036436;28;20041;-73
2021/12/01 09:33:38;;;;;;;7.82;2.40;;;;;;;;;;5036056;28;20041;-73
2021/12/01 09:36:06;;;;;;;5.07;2.20;;;;;;;;;;5035850;28;20061;-75
2021/12/01 09:38:34;;;;;;;6.60;2.63;;;;;;;;;;5035200;28;20056;-73
2021/12/01 09:41:01;;;;;;;5.90;2.35;;;;;;;;;;5035438;28;20038;-77
2021/12/01 09:43:31;;;;;;;7.47;2.55;;;;;;;;;;5001504;28;20048;-75
2021/12/01 09:46:00;;;;;;;5.85;2.55;;;;;;;;;;5002013;28;20041;-72
2021/12/01 09:48:28;;;;;;;6.57;2.53;;;;;;;;;;5035786;28;20041;-75
2021/12/01 09:51:11;;;;;;;10.75;2.42;;;;;;;;;;5003401;28;20048;-72
2021/12/01 09:53:39;;;;;;;6.25;2.72;;;;;;;;;;5018094;28;20042;-73
2021/12/01 09:56:06;;;;;;;6.90;2.65;;;;;;;;;;5017664;28;20095;-72
2021/12/01 09:58:35;;;;;;;8.45;3.75;;;;;;;;;;5017225;28;20069;-76
2021/12/01 10:01:08;;;;;;;11.65;5.20;;;;;;;;;;5017814;28;20056;-72
2021/12/01 10:03:36;;;;;;;8.45;2.80;;;;;;;;;;5035326;28;20056;-73
2021/12/01 10:06:10;;;;;;;5.22;2.05;;;;;;;;;;5017342;28;20445;-76
2021/12/01 10:08:39;;;;;;;8.40;2.42;;;;;;;;;;5017663;28;20132;-75
2021/12/01 10:11:09;;;;;;;7.90;2.30;;;;;;;;;;5017555;28;20091;-76
2021/12/01 10:13:39;;;;;;;5.72;2.60;;;;;;;;;;5034988;28;20052;-75
2021/12/01 10:16:07;;;;;;;9.65;2.63;;;;;;;;;;5017216;28;20496;-75
2021/12/01 10:18:39;;;;;;;6.70;2.63;;;;;;;;;;5035130;28;20515;-74
2021/12/01 10:21:09;;;;;;;5.38;1.80;;;;;;;;;;5034594;28;20048;-72
2021/12/01 10:23:42;;;;;;;8.38;2.67;;;;;;;;;;5034813;28;20041;-73
2021/12/01 10:26:14;;;;;;;7.18;2.60;;;;;;;;;;5034475;28;20121;-75
2021/12/01 10:28:46;;;;;;;8.20;2.83;;;;;;;;;;5035020;28;20121;-74
2021/12/01 10:31:31;;;;;;;7.22;2.60;;;;;;;;;;5034804;28;20115;-77
2021/12/01 10:34:17;;;;;;;9.32;2.35;;;;;;;;;;5035105;28;20475;-74
2021/12/01 10:36:46;;;;;;;5.63;2.53;;;;;;;;;;5034520;28;20049;-74
2021/12/01 10:39:14;;;;;;;7.88;2.40;;;;;;;;;;5034629;28;20045;-78
2021/12/01 10:41:43;;;;;;;7.88;2.97;;;;;;;;;;5035001;28;20046;-74
2021/12/01 10:44:12;;;;;;;7.95;2.30;;;;;;;;;;5034493;28;20137;-74
2021/12/01 10:46:44;;;;;;;4.88;2.22;;;;;;;;;;5034960;28;20397;-74
2021/12/01 10:49:12;;;;;;;8.82;2.80;;;;;;;;;;5034511;28;20042;-74
2021/12/01 10:51:41;;;;;;;6.32;2.10;;;;;;;;;;5033780;28;20045;-74
2021/12/01 10:54:20;;;;;;;3.85;1.60;;;;;;;;;;5034283;28;20043;-76
2021/12/01 10:57:08;;;;;;;5.18;1.73;;;;;;;;;;5034275;28;20053;-74
2021/12/01 10:59:44;;;;;;;5.13;1.60;;;;;;;;;;5016323;28;20509;-74
2021/12/01 11:02:13;;;;;;;7.30;1.50;;;;;;;;;;5033879;28;20037;-75
2021/12/01 11:04:44;;;;;;;8.82;1.80;;;;;;;;;;5033945;28;20072;-74
2021/12/01 11:07:31;;;;;;;5.25;1.55;;;;;;;;;;5034223;28;20072;-77
2021/12/01 11:10:10;;;;;;;6.30;1.75;;;;;;;;;;5034251;28;20045;-77
2021/12/01 11:12:39;;;;;;;4.70;1.27;;;;;;;;;;5016465;28;20476;-74
2021/12/01 11:15:27;;;;;;;9.30;1.42;;;;;;;;;;5033067;28;20049;-75
2021/12/01 11:17:56;;;;;;;7.63;2.08;;;;;;;;;;5033954;28;20121;-75
2021/12/01 11:20:35;;;;;;;5.88;1.65;;;;;;;;;;5033770;28;20493;-76
2021/12/01 11:23:09;;;;;;;5.50;1.80;;;;;;;;;;5033709;28;20038;-77
2021/12/01 11:25:38;;;;;;;7.13;1.75;;;;;;;;;;5033852;28;20042;-75
2021/12/01 11:28:08;;;;;;;5.38;1.60;;;;;;;;;;5034263;28;20045;-77
2021/12/01 11:30:37;;;;;;;6.75;1.67;;;;;;;;;;5033877;28;20038;-74
2021/12/01 11:33:13;;;;;;;4.47;1.60;;;;;;;;;;5033671;28;20077;-74
2021/12/01 11:35:54;;;;;;;2.80;1.55;;;;;;;;;;5033565;28;20068;-77
2021/12/01 11:38:22;;;;;;;8.05;2.50;;;;;;;;;;5033085;28;20046;-77
2021/12/01 11:40:50;;;;;;;5.38;1.40;;;;;;;;;;5033814;28;20053;-77
2021/12/01 11:43:19;;;;;;;6.80;1.52;;;;;;;;;;5015618;28;20049;-76
2021/12/01 11:45:46;;;;;;;6.13;1.77;;;;;;;;;;5033671;28;20378;-77
2021/12/01 11:48:28;;;;;;;3.15;1.20;;;;;;;;;;5033147;28;20045;-74
2021/12/01 11:50:58;;;;;;;4.35;1.33;;;;;;;;;;5015908;28;20046;-76
2021/12/01 11:53:37;;;;;;;3.25;1.52;;;;;;;;;;5033883;28;20429;-74
2021/12/01 11:56:20;;;;;;;5.22;2.03;;;;;;;;;;5015695;28;20144;-76
2021/12/01 11:58:49;;;;;;;4.78;1.27;;;;;;;;;;5033354;28;20069;-74
2021/12/01 12:01:23;;;;;;;4.35;1.20;;;;;;;;;;5015667;28;20052;-74
2021/12/01 12:03:54;;;;;;;5.30;1.58;;;;;;;;;;5032445;28;20426;-77
2021/12/01 12:06:22;;;;;;;6.30;1.50;;;;;;;;;;5032989;28;20043;-76
2021/12/01 12:09:10;;;;;;;3.42;1.20;;;;;;;;;;5032997;28;20034;-77
2021/12/01 12:11:38;;;;;;;9.02;1.50;;;;;;;;;;5033040;28;20045;-76
2021/12/01 12:14:13;;;;;;;10.00;1.88;;;;;;;;;;5032907;28;20051;-77
2021/12/01 12:16:41;;;;;;;3.88;1.60;;;;;;;;;;5032628;28;20576;-74
2021/12/01 12:19:09;;;;;;;3.42;1.33;;;;;;;;;;5015652;28;20064;-77
2021/12/01 12:21:46;;;;;;;5.80;1.90;;;;;;;;;;5032887;28;20128;-75
2021/12/01 12:24:20;;;;;;;4.68;1.85;;;;;;;;;;5015077;28;20045;-74
2021/12/01 12:26:49;;;;;;;5.30;1.65;;;;;;;;;;5015062;28;20068;-76
2021/12/01 12:29:19;;;;;;;4.60;1.90;;;;;;;;;;5033068;28;20557;-74
2021/12/01 12:31:48;;;;;;;7.97;1.38;;;;;;;;;;5032541;28;20033;-74
2021/12/01 12:34:16;;;;;;;5.43;1.88;;;;;;;;;;5033057;28;20493;-77
2021/12/01 12:36:48;;;;;;;5.15;1.80;;;;;;;;;;5032488;28;20516;-75
2021/12/01 12:39:17;;;;;;;2.78;1.17;;;;;;;;;;5014823;28;20050;-77
2021/12/01 12:42:04;;;;;;;7.13;2.00;;;;;;;;;;5015224;28;20140;-75
2021/12/01 12:44:45;;;;;;;9.18;1.63;;;;;;;;;;5032531;28;20072;-77
2021/12/01 12:47:44;;;;;;;2.67;1.10;;;;;;;;;;5032204;28;20444;-74
2021/12/01 12:50:20;;;;;;;4.75;1.60;;;;;;;;;;5036766;28;20065;-76
2021/12/01 12:52:52;;;;;;;3.55;1.40;;;;;;;;;;5035523;28;20045;-75
2021/12/01 12:55:20;;;;;;;4.00;1.60;;;;;;;;;;5019039;28;20045;-74
2021/12/01 12:57:52;;;;;;;3.90;1.30;;;;;;;;;;5036747;28;20048;-77
2021/12/01 13:00:20;;;;;;;;;;;;;;;;;;5036684;28;20408;-77
2021/12/01 13:02:48;;;;;;;8.43;1.50;;;;;;;;;;5036307;28;20319;-74
2021/12/01 13:05:30;;;;;;;3.78;1.48;;;;;;;;;;5036328;28;20113;-74
2021/12/01 13:07:59;;;;;;;3.75;1.70;;;;;;;;;;5019407;28;20065;-76
2021/12/01 13:10:28;;;;;;;5.10;1.65;;;;;;;;;;5036636;28;20045;-77
2021/12/01 13:13:02;;;;;;;4.47;1.42;;;;;;;;;;5018863;28;20056;-76
2021/12/01 13:15:31;;;;;;;4.53;1.75;;;;;;;;;;5017701;28;20050;-74
2021/12/01 13:18:01;;;;;;;8.68;1.45;;;;;;;;;;5036568;28;20045;-74
2021/12/01 13:20:33;;;;;;;7.22;1.90;;;;;;;;;;5036375;28;20052;-75
2021/12/01 13:23:06;;;;;;;2.72;1.05;;;;;;;;;;5036499;28;20080;-74
2021/12/01 13:25:35;;;;;;;3.08;1.42;;;;;;;;;;5021863;28;20073;-74
2021/12/01 13:28:03;;;;;;;3.30;1.35;;;;;;;;;;5013874;28;20068;-77
2021/12/01 13:30:32;;;;;;;4.80;1.50;;;;;;;;;;4996054;28;20037;-73
2021/12/01 13:33:07;;;;;;;2.63;1.20;;;;;;;;;;4996389;28;20046;-76
2021/12/01 13:35:35;;;;;;;4.38;1.50;;;;;;;;;;4979645;28;20139;-76
2021/12/01 13:38:04;;;;;;;3.42;1.10;;;;;;;;;;5012436;28;20050;-73
2021/12/01 13:40:36;;;;;;;5.93;1.33;;;;;;;;;;5029857;28;20045;-76
2021/12/01 13:43:20;;;;;;;6.55;1.67;;;;;;;;;;5036077;28;20059;-76
2021/12/01 13:46:00;;;;;;;4.95;1.50;;;;;;;;;;5035710;28;20132;-75
2021/12/01 13:48:29;;;;;;;6.88;2.35;;;;;;;;;;5035913;28;20042;-78
2021/12/01 13:51:07;;;;;;;5.75;2.90;;;;;;;;;;5035832;28;20046;-76
2021/12/01 13:53:35;;;;;;;9.07;3.03;;;;;;;;;;5035436;28;20096;-76
2021/12/01 13:56:25;;;;;;;4.63;1.80;;;;;;;;;;5035556;28;20049;-76
2021/12/01 13:58:58;;;;;;;7.43;2.15;;;;;;;;;;5034972;28;20049;-74
2021/12/01 14:01:26;;;;;;;8.02;2.17;;;;;;;;;;5017219;28;20052;-74
2021/12/01 14:04:03;;;;;;;8.10;1.85;;;;;;;;;;5033730;28;20096;-74
2021/12/01 14:06:40;;;;;;;6.10;1.80;;;;;;;;;;5038322;28;20043;-77
2021/12/01 14:09:12;;;;;;;5.50;1.67;;;;;;;;;;5034555;28;20045;-76
2021/12/01 14:11:39;;;;;;;4.95;1.58;;;;;;;;;;5035550;28;20112;-74
2021/12/01 14:14:09;;;;;;;7.07;1.65;;;;;;;;;;5034926;28;20160;-74
2021/12/01 14:16:37;;;;;;;4.93;1.50;;;;;;;;;;5035508;28;20053;-77
2021/12/01 14:19:06;;;;;;;5.43;1.92;;;;;;;;;;5035252;28;20052;-77
2021/12/01 14:21:36;;;;;;;6.05;1.70;;;;;;;;;;5035289;28;20041;-76
2021/12/01 14:24:26;;;;;;;6.13;1.73;;;;;;;;;;5035432;28;20380;-77
2021/12/01 14:27:04;;;;;;;3.85;1.50;;;;;;;;;;5035042;28;20129;-74
2021/12/01 14:29:32;;;;;;;9.10;2.10;;;;;;;;;;5017464;28;20041;-75
2021/12/01 14:32:00;;;;;;;7.10;1.70;;;;;;;;;;5034950;28;20045;-73
2021/12/01 14:34:33;;;;;;;9.15;1.88;;;;;;;;;;5034908;28;20045;-77
2021/12/01 14:37:02;;;;;;;5.13;1.77;;;;;;;;;;5035006;28;20038;-78
2021/12/01 14:39:30;;;;;;;11.63;1.92;;;;;;;;;;5017695;28;20577;-74
2021/12/01 14:41:59;;;;;;;7.22;1.55;;;;;;;;;;5034396;28;20049;-76
2021/12/01 14:44:29;;;;;;;3.00;1.20;;;;;;;;;;5034657;28;20116;-77
2021/12/01 14:46:59;;;;;;;10.20;1.83;;;;;;;;;;5017284;28;20121;-77
2021/12/01 14:49:35;;;;;;;10.93;2.03;;;;;;;;;;5035008;28;20038;-78
2021/12/01 14:52:03;;;;;;;8.43;1.70;;;;;;;;;;5035085;28;20048;-73
2021/12/01 14:54:36;;;;;;;8.73;2.25;;;;;;;;;;5017780;28;20041;-78
2021/12/01 14:57:09;;;;;;;7.35;2.03;;;;;;;;;;5016621;28;20041;-75
2021/12/01 14:59:37;;;;;;;3.42;1.60;;;;;;;;;;5034254;28;20165;-74
2021/12/01 15:02:10;;;;;;;3.45;1.55;;;;;;;;;;5035759;28;20047;-76
2021/12/01 15:04:38;;;;;;;4.10;1.45;;;;;;;;;;5034351;28;20079;-75
2021/12/01 15:07:14;;;;;;;6.65;2.03;;;;;;;;;;5034462;28;20041;-73
2021/12/01 15:09:43;;;;;;;6.45;1.58;;;;;;;;;;5034491;28;20671;-77